createdAt,value
2022-10-29T00:00:07.331Z,11.07
2022-10-29T00:03:11.059Z,10.70
2022-10-29T00:06:13.557Z,10.60
2022-10-29T00:09:15.709Z,9.17
2022-10-29T00:12:17.779Z,9.20
2022-10-29T00:15:20.505Z,9.27
2022-10-29T00:18:22.766Z,8.23
2022-10-29T00:21:26.300Z,11.27
2022-10-29T00:24:28.394Z,11.77
2022-10-29T00:27:30.810Z,9.73
2022-10-29T00:30:35.873Z,11.00
2022-10-29T00:33:38.647Z,9.93
2022-10-29T00:36:40.907Z,9.93
2022-10-29T00:39:43.433Z,9.00
2022-10-29T00:42:45.710Z,9.80
2022-10-29T00:45:55.960Z,9.27
2022-10-29T00:49:00.139Z,9.17
2022-10-29T00:52:04.717Z,8.20
2022-10-29T00:55:09.273Z,7.43
2022-10-29T00:58:12.318Z,8.03
2022-10-29T01:01:14.780Z,8.93
2022-10-29T01:04:18.632Z,8.30
2022-10-29T01:07:22.548Z,9.03
2022-10-29T01:10:38.095Z,8.70
2022-10-29T01:14:22.514Z,8.80
2022-10-29T01:17:40.313Z,8.33
2022-10-29T01:21:09.577Z,9.63
2022-10-29T01:24:27.095Z,8.60
2022-10-29T01:27:33.791Z,9.07
2022-10-29T01:31:01.564Z,9.73
2022-10-29T01:34:15.404Z,8.70
2022-10-29T01:37:25.507Z,9.20
2022-10-29T01:40:52.425Z,8.03
2022-10-29T01:44:05.322Z,8.30
2022-10-29T01:47:16.376Z,9.07
2022-10-29T01:50:21.879Z,9.90
2022-10-29T01:53:25.833Z,8.97
2022-10-29T01:56:27.994Z,8.10
2022-10-29T01:59:51.265Z,9.00
2022-10-29T02:03:09.808Z,7.30
2022-10-29T02:06:41.137Z,6.67
2022-10-29T02:10:01.791Z,6.93
2022-10-29T02:13:04.134Z,6.30
2022-10-29T02:16:08.800Z,8.00
2022-10-29T02:19:10.922Z,6.50
2022-10-29T02:22:12.969Z,6.77
2022-10-29T02:25:15.232Z,6.07
2022-10-29T02:28:17.496Z,6.67
2022-10-29T02:31:19.658Z,5.60
2022-10-29T02:34:21.733Z,7.37
2022-10-29T02:37:23.852Z,6.87
2022-10-29T02:40:25.901Z,6.17
2022-10-29T02:43:28.041Z,5.67
2022-10-29T02:46:30.815Z,7.33
2022-10-29T02:49:32.901Z,7.40
2022-10-29T02:52:34.952Z,7.07
2022-10-29T02:55:37.081Z,7.70
2022-10-29T02:58:39.531Z,7.27
2022-10-29T03:01:42.019Z,7.10
2022-10-29T03:04:44.978Z,7.67
2022-10-29T03:07:47.280Z,7.97
2022-10-29T03:10:49.357Z,7.63
2022-10-29T03:13:51.404Z,6.70
2022-10-29T03:16:53.508Z,7.10
2022-10-29T03:19:55.671Z,7.07
2022-10-29T03:22:57.730Z,6.40
2022-10-29T03:25:59.876Z,6.80
2022-10-29T03:29:02.160Z,6.30
2022-10-29T03:32:04.380Z,6.37
2022-10-29T03:35:07.737Z,7.40
2022-10-29T03:38:09.824Z,6.13
2022-10-29T03:41:11.983Z,7.43
2022-10-29T03:44:13.982Z,6.30
2022-10-29T03:47:16.194Z,6.03
2022-10-29T03:50:18.523Z,7.17
2022-10-29T03:53:20.622Z,6.27
2022-10-29T03:56:22.727Z,5.53
2022-10-29T03:59:24.942Z,6.33
2022-10-29T04:02:28.972Z,5.17
2022-10-29T04:05:31.111Z,5.13
2022-10-29T04:08:33.202Z,6.13
2022-10-29T04:11:35.340Z,5.40
2022-10-29T04:14:42.770Z,5.33
2022-10-29T04:17:51.429Z,5.77
2022-10-29T04:31:07.124Z,4.90
2022-10-29T04:34:09.277Z,4.30
2022-10-29T04:37:11.315Z,5.63
2022-10-29T04:40:13.559Z,4.47
2022-10-29T04:43:15.699Z,5.63
2022-10-29T04:46:17.991Z,4.53
2022-10-29T04:49:20.244Z,4.47
2022-10-29T04:52:22.326Z,4.37
2022-10-29T04:55:24.459Z,4.60
2022-10-29T04:58:26.493Z,4.73
2022-10-29T05:01:28.692Z,4.90
2022-10-29T05:04:30.954Z,4.57
2022-10-29T05:07:33.403Z,4.80
2022-10-29T05:10:38.337Z,4.80
2022-10-29T05:13:40.683Z,4.60
2022-10-29T05:16:42.902Z,5.33
2022-10-29T05:19:44.982Z,4.93
2022-10-29T05:22:47.137Z,5.60
2022-10-29T05:25:49.836Z,6.20
2022-10-29T05:28:52.301Z,5.40
2022-10-29T05:31:54.865Z,5.13
2022-10-29T05:34:57.055Z,4.93
2022-10-29T05:37:59.265Z,5.07
2022-10-29T05:41:01.351Z,6.40
2022-10-29T05:44:04.260Z,5.23
2022-10-29T05:47:07.000Z,5.83
2022-10-29T05:50:10.500Z,5.43
2022-10-29T05:53:14.934Z,5.60
2022-10-29T05:56:17.277Z,5.50
2022-10-29T05:59:20.333Z,5.00
2022-10-29T06:02:23.117Z,5.40
2022-10-29T06:05:26.126Z,5.23
2022-10-29T06:08:28.310Z,4.93
2022-10-29T06:11:31.196Z,5.13
2022-10-29T06:14:33.603Z,4.47
2022-10-29T06:17:42.801Z,4.30
2022-10-29T06:20:46.453Z,3.73
2022-10-29T06:23:50.941Z,4.40
2022-10-29T06:26:55.962Z,4.43
2022-10-29T06:29:58.426Z,3.60
2022-10-29T06:33:05.635Z,3.30
2022-10-29T06:36:08.297Z,4.40
2022-10-29T06:39:10.649Z,4.03
2022-10-29T06:42:12.932Z,4.73
2022-10-29T06:45:16.650Z,3.40
2022-10-29T06:48:22.516Z,4.00
2022-10-29T06:51:25.200Z,4.70
2022-10-29T06:54:27.879Z,3.47
2022-10-29T06:57:32.157Z,4.10
2022-10-29T07:00:36.088Z,3.93
2022-10-29T07:03:38.915Z,3.80
2022-10-29T07:06:43.889Z,3.67
2022-10-29T07:09:50.773Z,3.80
2022-10-29T07:12:53.383Z,2.60
2022-10-29T07:15:55.609Z,3.70
2022-10-29T07:18:58.036Z,3.90
2022-10-29T07:22:00.257Z,3.30
2022-10-29T07:25:02.604Z,3.10
2022-10-29T07:28:22.802Z,3.30
2022-10-29T07:31:25.824Z,3.60
2022-10-29T07:34:32.414Z,3.33
2022-10-29T07:37:35.997Z,3.60
2022-10-29T07:40:40.598Z,4.17
2022-10-29T07:43:43.524Z,4.40
2022-10-29T07:46:45.883Z,4.53
2022-10-29T07:49:55.266Z,3.70
2022-10-29T07:53:02.468Z,4.33
2022-10-29T07:56:05.025Z,4.27
2022-10-29T07:59:09.383Z,4.40
2022-10-29T08:02:12.349Z,3.63
2022-10-29T08:05:14.593Z,4.00
2022-10-29T08:08:18.163Z,4.30
2022-10-29T08:11:20.664Z,3.80
2022-10-29T08:14:23.012Z,4.00
2022-10-29T08:17:25.257Z,4.43
2022-10-29T08:20:29.277Z,3.67
2022-10-29T08:23:31.721Z,4.33
2022-10-29T08:26:33.999Z,4.73
2022-10-29T08:29:36.215Z,4.60
2022-10-29T08:32:47.847Z,4.50
2022-10-29T08:35:53.980Z,3.87
2022-10-29T08:38:56.249Z,4.00
2022-10-29T08:42:43.432Z,4.00
2022-10-29T08:45:55.258Z,4.33
2022-10-29T08:49:12.586Z,3.90
2022-10-29T08:52:22.636Z,3.93
2022-10-29T08:55:30.892Z,4.27
2022-10-29T08:58:59.775Z,3.27
2022-10-29T09:02:02.830Z,3.57
2022-10-29T09:05:06.182Z,4.13
2022-10-29T09:08:44.177Z,3.57
2022-10-29T09:12:10.524Z,3.97
2022-10-29T09:15:24.015Z,4.30
2022-10-29T09:18:57.368Z,3.50
2022-10-29T09:22:52.731Z,3.83
2022-10-29T09:26:11.765Z,3.60
2022-10-29T09:29:47.720Z,3.53
2022-10-29T09:33:10.072Z,3.40
2022-10-29T09:36:16.849Z,4.43
2022-10-29T09:39:39.467Z,3.27
2022-10-29T09:42:45.010Z,3.20
2022-10-29T09:46:01.389Z,3.27
2022-10-29T09:49:17.247Z,2.63
2022-10-29T09:52:23.976Z,2.87
2022-10-29T09:55:54.970Z,2.50
2022-10-29T09:59:11.780Z,2.50
2022-10-29T10:02:29.050Z,2.30
2022-10-29T10:05:36.611Z,2.50
2022-10-29T10:09:02.275Z,2.50
2022-10-29T10:12:08.217Z,2.60
2022-10-29T10:15:16.519Z,2.20
2022-10-29T10:18:20.503Z,2.60
2022-10-29T10:21:34.170Z,2.87
2022-10-29T10:24:39.949Z,3.37
2022-10-29T10:27:44.310Z,4.00
2022-10-29T10:31:05.345Z,3.70
2022-10-29T10:34:20.146Z,3.30
2022-10-29T10:37:25.281Z,4.87
2022-10-29T10:40:30.134Z,4.30
2022-10-29T10:43:33.652Z,4.40
2022-10-29T10:46:43.861Z,4.07
2022-10-29T10:49:48.730Z,4.20
2022-10-29T10:52:58.390Z,4.00
2022-10-29T10:56:02.564Z,5.20
2022-10-29T10:59:15.150Z,5.13
2022-10-29T11:02:40.366Z,4.10
2022-10-29T11:06:02.298Z,4.13
2022-10-29T11:09:24.545Z,4.77
2022-10-29T11:12:48.715Z,4.07
2022-10-29T11:15:55.426Z,4.10
2022-10-29T11:19:07.717Z,3.73
2022-10-29T11:22:38.759Z,3.53
2022-10-29T11:25:47.842Z,3.90
2022-10-29T11:29:14.279Z,3.73
2022-10-29T11:32:31.700Z,4.00
2022-10-29T11:35:46.926Z,3.97
2022-10-29T11:38:54.690Z,3.37
2022-10-29T11:42:07.150Z,3.57
2022-10-29T11:45:24.737Z,3.70
2022-10-29T11:48:42.713Z,3.70
2022-10-29T11:52:09.134Z,4.43
2022-10-29T11:55:32.415Z,5.47
2022-10-29T11:58:47.175Z,6.13
2022-10-29T12:02:20.619Z,6.13
2022-10-29T12:05:46.478Z,6.00
2022-10-29T12:09:08.745Z,7.80
2022-10-29T12:12:28.948Z,7.10
2022-10-29T12:15:31.079Z,8.17
2022-10-29T12:18:44.931Z,7.97
2022-10-29T12:22:17.838Z,8.47
2022-10-29T12:25:53.164Z,7.60
2022-10-29T12:29:04.141Z,7.97
2022-10-29T12:32:26.721Z,8.60
2022-10-29T12:35:39.281Z,10.13
2022-10-29T12:38:44.687Z,10.00
2022-10-29T12:41:54.766Z,10.27
2022-10-29T12:45:27.102Z,10.53
2022-10-29T12:48:40.410Z,9.90
2022-10-29T12:55:09.266Z,9.70
2022-10-29T12:58:49.157Z,8.90
2022-10-29T13:05:16.554Z,8.80
2022-10-29T13:08:28.234Z,9.23
2022-10-29T13:11:46.337Z,9.13
2022-10-29T13:14:56.318Z,9.63
2022-10-29T13:18:21.931Z,9.50
2022-10-29T13:22:02.965Z,10.43
2022-10-29T13:25:43.069Z,10.37
2022-10-29T13:28:52.653Z,10.00
2022-10-29T13:31:55.035Z,10.80
2022-10-29T13:35:02.447Z,10.17
2022-10-29T13:38:16.240Z,11.43
2022-10-29T13:41:30.171Z,9.77
2022-10-29T13:44:33.113Z,9.57
2022-10-29T13:47:36.503Z,9.63
2022-10-29T13:50:40.153Z,10.17
2022-10-29T13:53:54.942Z,9.60
2022-10-29T13:57:20.091Z,9.80
2022-10-29T14:00:23.676Z,9.83
2022-10-29T14:03:42.122Z,9.43
2022-10-29T14:06:50.622Z,9.93
2022-10-29T14:10:00.449Z,10.60
2022-10-29T14:13:23.751Z,9.77
2022-10-29T14:16:34.010Z,10.63
2022-10-29T14:19:47.383Z,10.13
2022-10-29T14:22:50.939Z,9.33
2022-10-29T14:25:59.100Z,10.73
2022-10-29T14:29:34.007Z,10.07
2022-10-29T14:32:39.488Z,9.70
2022-10-29T14:35:41.768Z,10.63
2022-10-29T14:39:05.224Z,10.30
2022-10-29T14:45:31.648Z,8.63
2022-10-29T14:48:34.768Z,8.63
2022-10-29T14:51:42.172Z,8.37
2022-10-29T14:54:51.000Z,7.93
2022-10-29T14:58:06.818Z,7.77
2022-10-29T15:01:21.353Z,11.07
2022-10-29T15:04:29.614Z,9.07
2022-10-29T15:07:34.742Z,11.07
2022-10-29T15:10:53.912Z,9.93
2022-10-29T15:13:56.046Z,11.23
2022-10-29T15:16:59.131Z,11.10
2022-10-29T15:20:19.268Z,8.80
2022-10-29T15:23:34.371Z,8.87
2022-10-29T15:26:46.078Z,8.33
2022-10-29T15:29:50.140Z,7.47
2022-10-29T15:32:59.758Z,8.27
2022-10-29T15:36:04.361Z,10.23
2022-10-29T15:39:29.468Z,9.20
2022-10-29T15:42:34.381Z,8.57
2022-10-29T15:45:36.691Z,9.00
2022-10-29T15:48:39.041Z,10.20
2022-10-29T15:51:41.169Z,9.53
2022-10-29T15:54:43.372Z,9.37
2022-10-29T15:57:48.956Z,8.33
2022-10-29T16:00:52.138Z,8.77
2022-10-29T16:03:59.228Z,9.00
2022-10-29T16:07:12.214Z,10.80
2022-10-29T16:11:17.529Z,8.73
2022-10-29T16:14:21.681Z,8.20
2022-10-29T16:17:25.601Z,8.43
2022-10-29T16:20:28.266Z,8.87
2022-10-29T16:23:32.134Z,9.23
2022-10-29T16:26:35.775Z,7.73
2022-10-29T16:29:38.755Z,8.80
2022-10-29T16:32:43.596Z,8.60
2022-10-29T16:35:49.658Z,7.70
2022-10-29T16:38:52.234Z,8.10
2022-10-29T16:41:54.853Z,11.70
2022-10-29T16:44:58.841Z,9.80
2022-10-29T16:48:01.882Z,10.27
2022-10-29T16:51:05.033Z,9.67
2022-10-29T16:54:07.519Z,12.80
2022-10-29T16:57:09.732Z,11.87
2022-10-29T17:00:12.621Z,10.90
2022-10-29T17:03:17.260Z,11.10
2022-10-29T17:06:19.440Z,10.57
2022-10-29T17:09:25.612Z,10.47
2022-10-29T17:12:28.105Z,11.10
2022-10-29T17:15:33.236Z,10.80
2022-10-29T17:18:37.984Z,12.17
2022-10-29T17:21:40.981Z,10.03
2022-10-29T17:24:44.467Z,11.60
2022-10-29T17:27:46.929Z,11.33
2022-10-29T17:30:50.450Z,12.90
2022-10-29T17:33:54.231Z,13.00
2022-10-29T17:37:03.950Z,9.90
2022-10-29T17:40:08.523Z,10.83
2022-10-29T17:43:11.399Z,12.47
2022-10-29T17:46:17.231Z,11.17
2022-10-29T17:49:21.847Z,13.23
2022-10-29T17:52:27.374Z,13.00
2022-10-29T17:55:29.879Z,13.07
2022-10-29T17:58:32.113Z,13.70
2022-10-29T18:01:38.814Z,11.63
2022-10-29T18:04:45.124Z,13.83
2022-10-29T18:07:50.357Z,15.17
2022-10-29T18:11:03.447Z,13.50
2022-10-29T18:14:07.906Z,12.10
2022-10-29T18:17:16.373Z,11.73
2022-10-29T18:20:20.364Z,11.60
2022-10-29T18:23:26.022Z,13.03
2022-10-29T18:26:38.808Z,12.10
2022-10-29T18:29:50.203Z,10.47
2022-10-29T18:32:53.665Z,12.70
2022-10-29T18:35:57.054Z,10.67
2022-10-29T18:39:00.090Z,13.70
2022-10-29T18:42:03.498Z,13.80
2022-10-29T18:45:09.195Z,13.87
2022-10-29T18:48:13.044Z,13.30
2022-10-29T18:51:34.200Z,14.50
2022-10-29T18:54:36.970Z,15.53
2022-10-29T18:57:39.616Z,16.90
2022-10-29T19:00:43.066Z,15.40
2022-10-29T19:03:56.823Z,16.07
2022-10-29T19:07:01.173Z,17.23
2022-10-29T19:10:08.005Z,20.67
2022-10-29T19:13:10.972Z,19.10
2022-10-29T19:16:14.365Z,19.20
2022-10-29T19:19:21.265Z,17.00
2022-10-29T19:22:26.710Z,16.27
2022-10-29T19:25:28.978Z,14.47
2022-10-29T19:28:33.044Z,13.30
2022-10-29T19:31:37.624Z,17.07
2022-10-29T19:34:41.536Z,15.17
2022-10-29T19:37:44.540Z,18.30
2022-10-29T19:40:47.173Z,15.03
2022-10-29T19:43:49.887Z,12.57
2022-10-29T19:46:52.398Z,15.10
2022-10-29T19:49:55.188Z,13.27
2022-10-29T19:52:58.843Z,13.20
2022-10-29T19:56:02.290Z,11.47
2022-10-29T19:59:05.751Z,13.00
2022-10-29T20:02:10.921Z,13.27
2022-10-29T20:05:14.088Z,12.80
2022-10-29T20:08:17.056Z,13.70
2022-10-29T20:11:20.681Z,14.40
2022-10-29T20:14:28.747Z,12.93
2022-10-29T20:17:32.133Z,12.70
2022-10-29T20:20:37.465Z,11.07
2022-10-29T20:23:41.738Z,10.50
2022-10-29T20:26:46.654Z,10.80
2022-10-29T20:29:50.093Z,10.23
2022-10-29T20:32:53.377Z,10.97
2022-10-29T20:35:57.130Z,9.00
2022-10-29T20:38:59.867Z,10.37
2022-10-29T20:42:02.473Z,11.27
2022-10-29T20:45:05.827Z,10.87
2022-10-29T20:48:08.065Z,10.40
2022-10-29T20:51:16.244Z,12.30
2022-10-29T20:54:19.164Z,11.53
2022-10-29T20:57:21.657Z,12.70
2022-10-29T21:00:24.163Z,12.03
2022-10-29T21:03:27.566Z,12.97
2022-10-29T21:06:30.781Z,12.17
2022-10-29T21:09:32.963Z,11.27
2022-10-29T21:12:35.208Z,10.53
2022-10-29T21:15:37.339Z,14.63
2022-10-29T21:18:41.421Z,11.77
2022-10-29T21:21:44.669Z,10.37
2022-10-29T21:24:47.559Z,11.27
2022-10-29T21:27:54.401Z,10.03
2022-10-29T21:30:56.715Z,8.77
2022-10-29T21:33:58.747Z,9.73
2022-10-29T21:37:01.129Z,9.27
2022-10-29T21:40:06.172Z,8.57
2022-10-29T21:43:09.051Z,8.73
2022-10-29T21:46:11.653Z,7.97
2022-10-29T21:49:14.049Z,8.27
2022-10-29T21:52:17.666Z,11.00
2022-10-29T21:55:22.108Z,10.40
2022-10-29T21:58:24.824Z,11.33
2022-10-29T22:01:27.246Z,8.93
2022-10-29T22:04:29.502Z,9.00
2022-10-29T22:07:31.686Z,9.30
2022-10-29T22:10:33.993Z,8.73
2022-10-29T22:16:57.062Z,7.97
2022-10-29T22:19:59.504Z,7.17
2022-10-29T22:23:01.635Z,8.97
2022-10-29T22:26:04.048Z,7.60
2022-10-29T22:29:06.436Z,7.33
2022-10-29T22:32:09.345Z,6.80
2022-10-29T22:35:11.861Z,7.27
2022-10-29T22:38:14.803Z,8.83
2022-10-29T22:41:18.186Z,7.70
2022-10-29T22:44:20.202Z,8.10
2022-10-29T22:47:22.242Z,9.03
2022-10-29T22:50:25.817Z,6.63
2022-10-29T22:53:28.339Z,6.27
2022-10-29T22:56:34.223Z,5.60
2022-10-29T22:59:40.034Z,6.10
2022-10-29T23:02:42.420Z,6.80
2022-10-29T23:05:44.578Z,5.70
2022-10-29T23:08:47.620Z,6.70
2022-10-29T23:11:49.640Z,7.97
2022-10-29T23:14:51.618Z,8.13
2022-10-29T23:17:54.063Z,8.57
2022-10-29T23:21:04.458Z,7.83
2022-10-29T23:24:06.987Z,6.07
2022-10-29T23:27:09.111Z,6.37
2022-10-29T23:30:11.719Z,6.03
2022-10-29T23:33:13.862Z,5.67
2022-10-29T23:36:17.630Z,5.57
2022-10-29T23:39:19.811Z,6.10
2022-10-29T23:42:22.070Z,4.87
2022-10-29T23:45:24.283Z,4.93
2022-10-29T23:48:26.858Z,5.50
2022-10-29T23:51:29.067Z,5.10
2022-10-29T23:54:31.185Z,6.27
2022-10-29T23:57:33.294Z,5.10
